sensor_id;sensor_type;location;lat;lon;timestamp;P1;durP1;ratioP1;P2;durP2;ratioP2
81191;SDS011;70665;47.652;-2.730;2023-06-22T00:00:54;7.28;;;3.78;;
81191;SDS011;70665;47.652;-2.730;2023-06-22T00:03:21;8.20;;;3.85;;
81191;SDS011;70665;47.652;-2.730;2023-06-22T00:05:48;8.70;;;4.30;;
81191;SDS011;70665;47.652;-2.730;2023-06-22T00:08:14;7.40;;;4.43;;
81191;SDS011;70665;47.652;-2.730;2023-06-22T00:10:41;8.63;;;4.40;;
81191;SDS011;70665;47.652;-2.730;2023-06-22T00:13:07;7.80;;;4.32;;
81191;SDS011;70665;47.652;-2.730;2023-06-22T00:15:33;10.65;;;3.92;;
81191;SDS011;70665;47.652;-2.730;2023-06-22T00:18:00;9.23;;;4.40;;
81191;SDS011;70665;47.652;-2.730;2023-06-22T00:20:27;7.30;;;4.28;;
81191;SDS011;70665;47.652;-2.730;2023-06-22T00:25:19;9.15;;;4.13;;
81191;SDS011;70665;47.652;-2.730;2023-06-22T00:27:44;8.80;;;4.55;;
81191;SDS011;70665;47.652;-2.730;2023-06-22T00:32:36;8.45;;;4.10;;
81191;SDS011;70665;47.652;-2.730;2023-06-22T00:35:01;11.65;;;4.53;;
81191;SDS011;70665;47.652;-2.730;2023-06-22T00:37:27;7.88;;;4.30;;
81191;SDS011;70665;47.652;-2.730;2023-06-22T00:39:54;7.18;;;4.63;;
81191;SDS011;70665;47.652;-2.730;2023-06-22T00:42:21;10.68;;;4.35;;
81191;SDS011;70665;47.652;-2.730;2023-06-22T00:47:15;7.82;;;4.57;;
81191;SDS011;70665;47.652;-2.730;2023-06-22T00:49:43;7.00;;;3.80;;
81191;SDS011;70665;47.652;-2.730;2023-06-22T00:52:09;7.90;;;3.95;;
81191;SDS011;70665;47.652;-2.730;2023-06-22T00:54:39;8.23;;;3.80;;
81191;SDS011;70665;47.652;-2.730;2023-06-22T00:57:10;10.35;;;4.50;;
81191;SDS011;70665;47.652;-2.730;2023-06-22T00:59:37;6.40;;;3.67;;
81191;SDS011;70665;47.652;-2.730;2023-06-22T01:02:04;8.57;;;4.00;;
81191;SDS011;70665;47.652;-2.730;2023-06-22T01:04:34;7.40;;;3.78;;
81191;SDS011;70665;47.652;-2.730;2023-06-22T01:07:50;6.70;;;3.90;;
81191;SDS011;70665;47.652;-2.730;2023-06-22T01:10:23;9.20;;;4.13;;
81191;SDS011;70665;47.652;-2.730;2023-06-22T01:12:57;7.57;;;3.60;;
81191;SDS011;70665;47.652;-2.730;2023-06-22T01:15:36;6.53;;;3.70;;
81191;SDS011;70665;47.652;-2.730;2023-06-22T01:18:16;7.15;;;3.88;;
81191;SDS011;70665;47.652;-2.730;2023-06-22T01:20:43;8.48;;;3.92;;
81191;SDS011;70665;47.652;-2.730;2023-06-22T01:26:08;7.70;;;4.18;;
81191;SDS011;70665;47.652;-2.730;2023-06-22T01:31:18;10.52;;;4.22;;
81191;SDS011;70665;47.652;-2.730;2023-06-22T01:33:47;6.93;;;3.63;;
81191;SDS011;70665;47.652;-2.730;2023-06-22T01:36:16;6.25;;;3.53;;
81191;SDS011;70665;47.652;-2.730;2023-06-22T01:38:43;8.65;;;3.80;;
81191;SDS011;70665;47.652;-2.730;2023-06-22T01:41:11;6.70;;;4.10;;
81191;SDS011;70665;47.652;-2.730;2023-06-22T01:43:37;6.03;;;3.72;;
81191;SDS011;70665;47.652;-2.730;2023-06-22T01:46:03;7.22;;;3.85;;
81191;SDS011;70665;47.652;-2.730;2023-06-22T01:48:29;9.30;;;3.85;;
81191;SDS011;70665;47.652;-2.730;2023-06-22T01:50:56;6.07;;;3.92;;
81191;SDS011;70665;47.652;-2.730;2023-06-22T01:55:48;7.53;;;3.80;;
81191;SDS011;70665;47.652;-2.730;2023-06-22T01:58:14;6.55;;;3.63;;
81191;SDS011;70665;47.652;-2.730;2023-06-22T02:03:13;8.57;;;4.13;;
81191;SDS011;70665;47.652;-2.730;2023-06-22T02:05:52;5.57;;;3.25;;
81191;SDS011;70665;47.652;-2.730;2023-06-22T02:08:25;6.43;;;3.50;;
81191;SDS011;70665;47.652;-2.730;2023-06-22T02:10:55;7.80;;;3.85;;
81191;SDS011;70665;47.652;-2.730;2023-06-22T02:13:24;5.47;;;3.53;;
81191;SDS011;70665;47.652;-2.730;2023-06-22T02:15:50;7.32;;;4.00;;
81191;SDS011;70665;47.652;-2.730;2023-06-22T02:18:16;9.60;;;4.47;;
81191;SDS011;70665;47.652;-2.730;2023-06-22T02:23:07;7.45;;;3.53;;
81191;SDS011;70665;47.652;-2.730;2023-06-22T02:27:59;7.10;;;3.40;;
81191;SDS011;70665;47.652;-2.730;2023-06-22T02:32:50;6.53;;;3.88;;
81191;SDS011;70665;47.652;-2.730;2023-06-22T02:35:27;10.45;;;3.83;;
81191;SDS011;70665;47.652;-2.730;2023-06-22T02:37:56;5.57;;;3.67;;
81191;SDS011;70665;47.652;-2.730;2023-06-22T02:40:26;6.90;;;3.70;;
81191;SDS011;70665;47.652;-2.730;2023-06-22T02:42:52;6.35;;;3.85;;
81191;SDS011;70665;47.652;-2.730;2023-06-22T02:47:43;5.57;;;3.63;;
81191;SDS011;70665;47.652;-2.730;2023-06-22T02:52:35;7.30;;;3.90;;
81191;SDS011;70665;47.652;-2.730;2023-06-22T02:57:26;8.57;;;4.10;;
81191;SDS011;70665;47.652;-2.730;2023-06-22T03:02:17;8.05;;;3.97;;
81191;SDS011;70665;47.652;-2.730;2023-06-22T03:04:46;6.20;;;3.70;;
81191;SDS011;70665;47.652;-2.730;2023-06-22T03:07:14;7.18;;;3.70;;
81191;SDS011;70665;47.652;-2.730;2023-06-22T03:09:40;7.60;;;4.20;;
81191;SDS011;70665;47.652;-2.730;2023-06-22T03:12:07;7.47;;;3.90;;
81191;SDS011;70665;47.652;-2.730;2023-06-22T03:14:33;6.50;;;3.58;;
81191;SDS011;70665;47.652;-2.730;2023-06-22T03:19:28;7.50;;;3.50;;
81191;SDS011;70665;47.652;-2.730;2023-06-22T03:21:54;6.97;;;3.78;;
81191;SDS011;70665;47.652;-2.730;2023-06-22T03:26:46;5.65;;;3.60;;
81191;SDS011;70665;47.652;-2.730;2023-06-22T03:31:37;8.45;;;4.28;;
81191;SDS011;70665;47.652;-2.730;2023-06-22T03:36:28;6.43;;;3.75;;
81191;SDS011;70665;47.652;-2.730;2023-06-22T03:41:19;8.45;;;3.95;;
81191;SDS011;70665;47.652;-2.730;2023-06-22T03:46:10;6.72;;;3.60;;
81191;SDS011;70665;47.652;-2.730;2023-06-22T03:51:02;7.43;;;4.07;;
81191;SDS011;70665;47.652;-2.730;2023-06-22T03:55:54;6.47;;;3.05;;
81191;SDS011;70665;47.652;-2.730;2023-06-22T04:00:49;9.32;;;3.50;;
81191;SDS011;70665;47.652;-2.730;2023-06-22T04:03:16;6.88;;;3.95;;
81191;SDS011;70665;47.652;-2.730;2023-06-22T04:05:43;7.05;;;4.47;;
81191;SDS011;70665;47.652;-2.730;2023-06-22T04:08:10;11.05;;;4.00;;
81191;SDS011;70665;47.652;-2.730;2023-06-22T04:10:37;7.22;;;3.80;;
81191;SDS011;70665;47.652;-2.730;2023-06-22T04:13:02;6.85;;;3.65;;
81191;SDS011;70665;47.652;-2.730;2023-06-22T04:17:54;5.95;;;3.53;;
81191;SDS011;70665;47.652;-2.730;2023-06-22T04:20:20;6.65;;;3.72;;
81191;SDS011;70665;47.652;-2.730;2023-06-22T04:22:46;7.35;;;3.53;;
81191;SDS011;70665;47.652;-2.730;2023-06-22T04:27:37;7.22;;;3.42;;
81191;SDS011;70665;47.652;-2.730;2023-06-22T04:30:05;8.93;;;4.00;;
81191;SDS011;70665;47.652;-2.730;2023-06-22T04:32:32;5.88;;;3.92;;
81191;SDS011;70665;47.652;-2.730;2023-06-22T04:34:58;8.18;;;3.78;;
81191;SDS011;70665;47.652;-2.730;2023-06-22T04:37:25;8.40;;;3.67;;
81191;SDS011;70665;47.652;-2.730;2023-06-22T04:42:17;8.65;;;5.03;;
81191;SDS011;70665;47.652;-2.730;2023-06-22T04:47:08;6.05;;;3.45;;
81191;SDS011;70665;47.652;-2.730;2023-06-22T04:52:02;7.82;;;3.38;;
81191;SDS011;70665;47.652;-2.730;2023-06-22T04:54:29;5.80;;;3.80;;
81191;SDS011;70665;47.652;-2.730;2023-06-22T04:56:57;7.05;;;3.83;;
81191;SDS011;70665;47.652;-2.730;2023-06-22T04:59:34;9.70;;;4.28;;
81191;SDS011;70665;47.652;-2.730;2023-06-22T05:02:01;8.23;;;3.95;;
81191;SDS011;70665;47.652;-2.730;2023-06-22T05:04:27;8.82;;;4.50;;
81191;SDS011;70665;47.652;-2.730;2023-06-22T05:07:01;8.07;;;4.43;;
81191;SDS011;70665;47.652;-2.730;2023-06-22T05:09:27;5.82;;;4.00;;
81191;SDS011;70665;47.652;-2.730;2023-06-22T05:11:55;6.93;;;4.20;;
81191;SDS011;70665;47.652;-2.730;2023-06-22T05:14:24;11.70;;;4.38;;
81191;SDS011;70665;47.652;-2.730;2023-06-22T05:16:50;7.78;;;4.35;;
81191;SDS011;70665;47.652;-2.730;2023-06-22T05:19:17;8.70;;;4.47;;
81191;SDS011;70665;47.652;-2.730;2023-06-22T05:24:08;7.43;;;3.95;;
81191;SDS011;70665;47.652;-2.730;2023-06-22T05:29:00;7.63;;;3.97;;
81191;SDS011;70665;47.652;-2.730;2023-06-22T05:31:27;8.95;;;4.57;;
81191;SDS011;70665;47.652;-2.730;2023-06-22T05:36:19;10.15;;;4.30;;
81191;SDS011;70665;47.652;-2.730;2023-06-22T05:38:46;7.97;;;4.05;;
81191;SDS011;70665;47.652;-2.730;2023-06-22T05:41:12;8.55;;;4.50;;
81191;SDS011;70665;47.652;-2.730;2023-06-22T05:43:38;7.55;;;4.38;;
81191;SDS011;70665;47.652;-2.730;2023-06-22T05:46:04;8.63;;;4.72;;
81191;SDS011;70665;47.652;-2.730;2023-06-22T05:48:31;8.43;;;4.82;;
81191;SDS011;70665;47.652;-2.730;2023-06-22T05:50:57;9.45;;;5.30;;
81191;SDS011;70665;47.652;-2.730;2023-06-22T05:55:48;7.88;;;4.43;;
81191;SDS011;70665;47.652;-2.730;2023-06-22T06:00:40;12.43;;;4.35;;
81191;SDS011;70665;47.652;-2.730;2023-06-22T06:03:09;7.90;;;4.38;;
81191;SDS011;70665;47.652;-2.730;2023-06-22T06:05:35;10.10;;;4.63;;
81191;SDS011;70665;47.652;-2.730;2023-06-22T06:08:02;7.80;;;4.50;;
81191;SDS011;70665;47.652;-2.730;2023-06-22T06:10:30;9.73;;;4.55;;
81191;SDS011;70665;47.652;-2.730;2023-06-22T06:12:56;6.85;;;4.38;;
81191;SDS011;70665;47.652;-2.730;2023-06-22T06:15:22;8.65;;;4.45;;
81191;SDS011;70665;47.652;-2.730;2023-06-22T06:20:18;7.07;;;4.45;;
81191;SDS011;70665;47.652;-2.730;2023-06-22T06:22:45;8.25;;;5.05;;
81191;SDS011;70665;47.652;-2.730;2023-06-22T06:25:11;8.43;;;4.53;;
81191;SDS011;70665;47.652;-2.730;2023-06-22T06:27:43;8.75;;;4.32;;
81191;SDS011;70665;47.652;-2.730;2023-06-22T06:30:10;10.55;;;4.70;;
81191;SDS011;70665;47.652;-2.730;2023-06-22T06:32:37;6.97;;;4.95;;
81191;SDS011;70665;47.652;-2.730;2023-06-22T06:35:06;7.88;;;4.10;;
81191;SDS011;70665;47.652;-2.730;2023-06-22T06:37:35;10.88;;;4.93;;
81191;SDS011;70665;47.652;-2.730;2023-06-22T06:40:02;9.02;;;4.70;;
81191;SDS011;70665;47.652;-2.730;2023-06-22T06:42:45;8.45;;;4.88;;
81191;SDS011;70665;47.652;-2.730;2023-06-22T06:47:40;9.00;;;4.47;;
81191;SDS011;70665;47.652;-2.730;2023-06-22T06:52:32;10.32;;;4.20;;
81191;SDS011;70665;47.652;-2.730;2023-06-22T06:57:23;7.70;;;3.85;;
81191;SDS011;70665;47.652;-2.730;2023-06-22T06:59:53;7.53;;;3.70;;
81191;SDS011;70665;47.652;-2.730;2023-06-22T07:02:22;6.90;;;3.83;;
81191;SDS011;70665;47.652;-2.730;2023-06-22T07:04:48;10.48;;;4.00;;
81191;SDS011;70665;47.652;-2.730;2023-06-22T07:07:14;7.00;;;4.20;;
81191;SDS011;70665;47.652;-2.730;2023-06-22T07:09:40;7.15;;;4.05;;
81191;SDS011;70665;47.652;-2.730;2023-06-22T07:12:06;10.40;;;4.25;;
81191;SDS011;70665;47.652;-2.730;2023-06-22T07:14:32;7.75;;;4.07;;
81191;SDS011;70665;47.652;-2.730;2023-06-22T07:16:58;8.65;;;4.43;;
81191;SDS011;70665;47.652;-2.730;2023-06-22T07:19:24;8.18;;;3.95;;
81191;SDS011;70665;47.652;-2.730;2023-06-22T07:21:51;7.28;;;4.00;;
81191;SDS011;70665;47.652;-2.730;2023-06-22T07:24:18;8.10;;;3.92;;
81191;SDS011;70665;47.652;-2.730;2023-06-22T07:26:45;7.65;;;4.20;;
81191;SDS011;70665;47.652;-2.730;2023-06-22T07:29:11;6.63;;;3.88;;
81191;SDS011;70665;47.652;-2.730;2023-06-22T07:31:37;7.28;;;4.07;;
81191;SDS011;70665;47.652;-2.730;2023-06-22T07:34:05;6.53;;;3.45;;
81191;SDS011;70665;47.652;-2.730;2023-06-22T07:36:30;8.55;;;4.60;;
81191;SDS011;70665;47.652;-2.730;2023-06-22T07:38:56;8.25;;;3.97;;
81191;SDS011;70665;47.652;-2.730;2023-06-22T07:41:21;7.72;;;3.45;;
81191;SDS011;70665;47.652;-2.730;2023-06-22T07:43:47;7.32;;;4.00;;
81191;SDS011;70665;47.652;-2.730;2023-06-22T07:46:13;9.18;;;3.70;;
81191;SDS011;70665;47.652;-2.730;2023-06-22T07:48:39;9.07;;;3.88;;
81191;SDS011;70665;47.652;-2.730;2023-06-22T07:51:06;9.18;;;3.67;;
81191;SDS011;70665;47.652;-2.730;2023-06-22T07:53:32;6.70;;;3.55;;
81191;SDS011;70665;47.652;-2.730;2023-06-22T07:55:58;6.70;;;4.13;;
81191;SDS011;70665;47.652;-2.730;2023-06-22T07:58:23;6.60;;;4.00;;
81191;SDS011;70665;47.652;-2.730;2023-06-22T08:00:49;7.80;;;4.10;;
81191;SDS011;70665;47.652;-2.730;2023-06-22T08:03:15;7.28;;;3.88;;
81191;SDS011;70665;47.652;-2.730;2023-06-22T08:05:40;8.65;;;3.80;;
81191;SDS011;70665;47.652;-2.730;2023-06-22T08:08:06;7.68;;;3.42;;
81191;SDS011;70665;47.652;-2.730;2023-06-22T08:10:32;8.13;;;3.85;;
81191;SDS011;70665;47.652;-2.730;2023-06-22T08:12:57;7.40;;;4.05;;
81191;SDS011;70665;47.652;-2.730;2023-06-22T08:15:26;10.25;;;3.67;;
81191;SDS011;70665;47.652;-2.730;2023-06-22T08:17:51;7.07;;;3.58;;
81191;SDS011;70665;47.652;-2.730;2023-06-22T08:20:17;6.45;;;3.92;;
81191;SDS011;70665;47.652;-2.730;2023-06-22T08:22:43;8.38;;;4.07;;
81191;SDS011;70665;47.652;-2.730;2023-06-22T08:25:09;5.32;;;3.45;;
81191;SDS011;70665;47.652;-2.730;2023-06-22T08:27:35;7.72;;;4.40;;
81191;SDS011;70665;47.652;-2.730;2023-06-22T08:30:01;12.23;;;4.40;;
81191;SDS011;70665;47.652;-2.730;2023-06-22T08:32:27;7.40;;;3.83;;
81191;SDS011;70665;47.652;-2.730;2023-06-22T08:34:54;7.68;;;3.50;;
81191;SDS011;70665;47.652;-2.730;2023-06-22T08:37:20;6.63;;;3.97;;
81191;SDS011;70665;47.652;-2.730;2023-06-22T08:39:48;8.02;;;3.80;;
81191;SDS011;70665;47.652;-2.730;2023-06-22T08:42:15;9.82;;;3.78;;
81191;SDS011;70665;47.652;-2.730;2023-06-22T08:44:41;9.20;;;4.07;;
81191;SDS011;70665;47.652;-2.730;2023-06-22T08:47:06;5.75;;;3.47;;
81191;SDS011;70665;47.652;-2.730;2023-06-22T08:49:32;6.97;;;4.10;;
81191;SDS011;70665;47.652;-2.730;2023-06-22T08:51:58;8.75;;;3.95;;
81191;SDS011;70665;47.652;-2.730;2023-06-22T08:54:23;5.97;;;3.70;;
81191;SDS011;70665;47.652;-2.730;2023-06-22T08:56:49;8.25;;;4.25;;
81191;SDS011;70665;47.652;-2.730;2023-06-22T08:59:15;9.38;;;4.18;;
81191;SDS011;70665;47.652;-2.730;2023-06-22T09:01:40;12.18;;;4.28;;
81191;SDS011;70665;47.652;-2.730;2023-06-22T09:04:10;5.60;;;4.00;;
81191;SDS011;70665;47.652;-2.730;2023-06-22T09:06:36;8.40;;;4.10;;
81191;SDS011;70665;47.652;-2.730;2023-06-22T09:09:06;6.00;;;3.40;;
81191;SDS011;70665;47.652;-2.730;2023-06-22T09:11:32;9.15;;;3.72;;
81191;SDS011;70665;47.652;-2.730;2023-06-22T09:13:57;5.78;;;4.35;;
81191;SDS011;70665;47.652;-2.730;2023-06-22T09:16:23;5.78;;;3.55;;
81191;SDS011;70665;47.652;-2.730;2023-06-22T09:18:48;6.35;;;3.67;;
81191;SDS011;70665;47.652;-2.730;2023-06-22T09:21:14;7.75;;;4.03;;
81191;SDS011;70665;47.652;-2.730;2023-06-22T09:23:40;10.38;;;4.10;;
81191;SDS011;70665;47.652;-2.730;2023-06-22T09:26:05;7.07;;;3.97;;
81191;SDS011;70665;47.652;-2.730;2023-06-22T09:28:31;7.05;;;4.28;;
81191;SDS011;70665;47.652;-2.730;2023-06-22T09:30:58;6.53;;;4.18;;
81191;SDS011;70665;47.652;-2.730;2023-06-22T09:33:25;8.00;;;4.07;;
81191;SDS011;70665;47.652;-2.730;2023-06-22T09:35:51;7.68;;;4.50;;
81191;SDS011;70665;47.652;-2.730;2023-06-22T09:38:17;9.55;;;4.20;;
81191;SDS011;70665;47.652;-2.730;2023-06-22T09:40:42;6.60;;;4.05;;
81191;SDS011;70665;47.652;-2.730;2023-06-22T09:43:08;11.23;;;4.38;;
81191;SDS011;70665;47.652;-2.730;2023-06-22T09:45:34;9.93;;;4.40;;
81191;SDS011;70665;47.652;-2.730;2023-06-22T09:47:59;8.70;;;5.10;;
81191;SDS011;70665;47.652;-2.730;2023-06-22T09:50:25;7.57;;;4.22;;
81191;SDS011;70665;47.652;-2.730;2023-06-22T09:52:50;7.57;;;4.38;;
81191;SDS011;70665;47.652;-2.730;2023-06-22T09:55:20;7.50;;;4.43;;
81191;SDS011;70665;47.652;-2.730;2023-06-22T09:57:46;6.50;;;4.20;;
81191;SDS011;70665;47.652;-2.730;2023-06-22T10:00:11;8.45;;;4.00;;
81191;SDS011;70665;47.652;-2.730;2023-06-22T10:02:39;8.23;;;4.00;;
81191;SDS011;70665;47.652;-2.730;2023-06-22T10:05:05;6.40;;;4.03;;
81191;SDS011;70665;47.652;-2.730;2023-06-22T10:07:32;8.20;;;4.43;;
81191;SDS011;70665;47.652;-2.730;2023-06-22T10:09:58;7.18;;;4.30;;
81191;SDS011;70665;47.652;-2.730;2023-06-22T10:12:23;5.47;;;4.18;;
81191;SDS011;70665;47.652;-2.730;2023-06-22T10:14:50;7.55;;;4.32;;
81191;SDS011;70665;47.652;-2.730;2023-06-22T10:17:16;6.82;;;4.00;;
81191;SDS011;70665;47.652;-2.730;2023-06-22T10:19:41;7.15;;;4.40;;
81191;SDS011;70665;47.652;-2.730;2023-06-22T10:22:07;6.30;;;4.13;;
81191;SDS011;70665;47.652;-2.730;2023-06-22T10:24:32;7.45;;;4.15;;
81191;SDS011;70665;47.652;-2.730;2023-06-22T10:26:58;6.72;;;4.28;;
81191;SDS011;70665;47.652;-2.730;2023-06-22T10:29:24;6.75;;;4.30;;
81191;SDS011;70665;47.652;-2.730;2023-06-22T10:31:49;7.95;;;4.32;;
81191;SDS011;70665;47.652;-2.730;2023-06-22T10:34:15;8.40;;;4.53;;
81191;SDS011;70665;47.652;-2.730;2023-06-22T10:36:41;5.95;;;3.83;;
81191;SDS011;70665;47.652;-2.730;2023-06-22T10:39:06;7.63;;;3.88;;
81191;SDS011;70665;47.652;-2.730;2023-06-22T10:41:32;6.07;;;3.97;;
81191;SDS011;70665;47.652;-2.730;2023-06-22T10:43:58;7.78;;;3.70;;
81191;SDS011;70665;47.652;-2.730;2023-06-22T10:46:24;7.95;;;4.18;;
81191;SDS011;70665;47.652;-2.730;2023-06-22T10:48:51;6.95;;;3.80;;
81191;SDS011;70665;47.652;-2.730;2023-06-22T10:51:19;7.13;;;4.60;;
81191;SDS011;70665;47.652;-2.730;2023-06-22T10:53:45;8.73;;;5.03;;
81191;SDS011;70665;47.652;-2.730;2023-06-22T10:56:10;6.78;;;4.10;;
81191;SDS011;70665;47.652;-2.730;2023-06-22T10:58:36;7.45;;;4.05;;
81191;SDS011;70665;47.652;-2.730;2023-06-22T11:01:02;6.20;;;4.32;;
81191;SDS011;70665;47.652;-2.730;2023-06-22T11:03:28;6.85;;;4.75;;
81191;SDS011;70665;47.652;-2.730;2023-06-22T11:05:53;6.65;;;4.65;;
81191;SDS011;70665;47.652;-2.730;2023-06-22T11:08:19;6.38;;;3.97;;
81191;SDS011;70665;47.652;-2.730;2023-06-22T11:10:45;7.90;;;4.47;;
81191;SDS011;70665;47.652;-2.730;2023-06-22T11:13:10;5.15;;;4.20;;
81191;SDS011;70665;47.652;-2.730;2023-06-22T11:15:36;8.20;;;4.20;;
81191;SDS011;70665;47.652;-2.730;2023-06-22T11:18:02;7.53;;;3.85;;
81191;SDS011;70665;47.652;-2.730;2023-06-22T11:20:30;6.80;;;3.92;;
81191;SDS011;70665;47.652;-2.730;2023-06-22T11:22:55;6.13;;;3.90;;
81191;SDS011;70665;47.652;-2.730;2023-06-22T11:25:21;8.50;;;4.13;;
81191;SDS011;70665;47.652;-2.730;2023-06-22T11:27:47;7.95;;;4.15;;
81191;SDS011;70665;47.652;-2.730;2023-06-22T11:30:12;7.07;;;3.85;;
81191;SDS011;70665;47.652;-2.730;2023-06-22T11:32:38;7.82;;;4.30;;
81191;SDS011;70665;47.652;-2.730;2023-06-22T11:35:04;8.25;;;3.97;;
81191;SDS011;70665;47.652;-2.730;2023-06-22T11:37:29;7.03;;;4.53;;
81191;SDS011;70665;47.652;-2.730;2023-06-22T11:39:55;6.68;;;4.18;;
81191;SDS011;70665;47.652;-2.730;2023-06-22T11:42:21;8.60;;;3.75;;
81191;SDS011;70665;47.652;-2.730;2023-06-22T11:44:48;6.75;;;3.90;;
81191;SDS011;70665;47.652;-2.730;2023-06-22T11:47:14;7.53;;;3.60;;
81191;SDS011;70665;47.652;-2.730;2023-06-22T11:49:40;7.60;;;3.85;;
81191;SDS011;70665;47.652;-2.730;2023-06-22T11:52:06;6.85;;;3.90;;
81191;SDS011;70665;47.652;-2.730;2023-06-22T11:54:32;6.78;;;3.60;;
81191;SDS011;70665;47.652;-2.730;2023-06-22T11:56:57;7.18;;;3.63;;
81191;SDS011;70665;47.652;-2.730;2023-06-22T11:59:23;7.35;;;4.18;;
81191;SDS011;70665;47.652;-2.730;2023-06-22T12:01:48;6.63;;;3.95;;
81191;SDS011;70665;47.652;-2.730;2023-06-22T12:04:16;6.90;;;3.60;;
81191;SDS011;70665;47.652;-2.730;2023-06-22T12:06:42;6.90;;;3.35;;
81191;SDS011;70665;47.652;-2.730;2023-06-22T12:09:08;5.80;;;3.42;;
81191;SDS011;70665;47.652;-2.730;2023-06-22T12:11:34;8.32;;;3.67;;
81191;SDS011;70665;47.652;-2.730;2023-06-22T12:14:00;7.20;;;3.75;;
81191;SDS011;70665;47.652;-2.730;2023-06-22T12:16:30;8.63;;;4.15;;
81191;SDS011;70665;47.652;-2.730;2023-06-22T12:18:55;7.07;;;3.65;;
81191;SDS011;70665;47.652;-2.730;2023-06-22T12:21:21;9.68;;;3.83;;
81191;SDS011;70665;47.652;-2.730;2023-06-22T12:23:47;5.20;;;3.47;;
81191;SDS011;70665;47.652;-2.730;2023-06-22T12:26:12;9.73;;;4.07;;
81191;SDS011;70665;47.652;-2.730;2023-06-22T12:28:38;6.45;;;3.50;;
81191;SDS011;70665;47.652;-2.730;2023-06-22T12:31:03;6.75;;;3.75;;
81191;SDS011;70665;47.652;-2.730;2023-06-22T12:33:29;13.85;;;3.60;;
81191;SDS011;70665;47.652;-2.730;2023-06-22T12:35:55;5.95;;;3.33;;
81191;SDS011;70665;47.652;-2.730;2023-06-22T12:38:21;6.15;;;3.40;;
81191;SDS011;70665;47.652;-2.730;2023-06-22T12:40:49;6.53;;;3.63;;
81191;SDS011;70665;47.652;-2.730;2023-06-22T12:43:14;5.45;;;3.35;;
81191;SDS011;70665;47.652;-2.730;2023-06-22T12:45:40;6.00;;;3.10;;
81191;SDS011;70665;47.652;-2.730;2023-06-22T12:48:06;7.72;;;3.78;;
81191;SDS011;70665;47.652;-2.730;2023-06-22T12:50:31;8.43;;;3.22;;
81191;SDS011;70665;47.652;-2.730;2023-06-22T12:52:57;6.75;;;3.50;;
81191;SDS011;70665;47.652;-2.730;2023-06-22T12:55:23;5.47;;;3.10;;
81191;SDS011;70665;47.652;-2.730;2023-06-22T12:57:48;6.65;;;3.25;;
81191;SDS011;70665;47.652;-2.730;2023-06-22T13:00:14;6.30;;;3.30;;
81191;SDS011;70665;47.652;-2.730;2023-06-22T13:02:40;7.63;;;3.10;;
81191;SDS011;70665;47.652;-2.730;2023-06-22T13:05:06;6.78;;;3.42;;
81191;SDS011;70665;47.652;-2.730;2023-06-22T13:07:32;6.25;;;3.50;;
81191;SDS011;70665;47.652;-2.730;2023-06-22T13:09:58;5.32;;;3.42;;
81191;SDS011;70665;47.652;-2.730;2023-06-22T13:12:23;5.80;;;3.80;;
81191;SDS011;70665;47.652;-2.730;2023-06-22T13:14:49;6.22;;;3.38;;
81191;SDS011;70665;47.652;-2.730;2023-06-22T13:17:15;4.78;;;3.38;;
81191;SDS011;70665;47.652;-2.730;2023-06-22T13:19:40;8.30;;;3.50;;
81191;SDS011;70665;47.652;-2.730;2023-06-22T13:22:25;6.03;;;3.60;;
81191;SDS011;70665;47.652;-2.730;2023-06-22T13:24:53;6.32;;;3.42;;
81191;SDS011;70665;47.652;-2.730;2023-06-22T13:27:19;6.88;;;3.78;;
81191;SDS011;70665;47.652;-2.730;2023-06-22T13:29:44;6.53;;;4.05;;
81191;SDS011;70665;47.652;-2.730;2023-06-22T13:32:10;8.30;;;3.53;;
81191;SDS011;70665;47.652;-2.730;2023-06-22T13:34:35;8.40;;;3.58;;
81191;SDS011;70665;47.652;-2.730;2023-06-22T13:37:01;7.63;;;3.83;;
81191;SDS011;70665;47.652;-2.730;2023-06-22T13:39:27;5.85;;;3.70;;
81191;SDS011;70665;47.652;-2.730;2023-06-22T13:41:52;5.05;;;3.22;;
81191;SDS011;70665;47.652;-2.730;2023-06-22T13:44:18;4.85;;;3.20;;
81191;SDS011;70665;47.652;-2.730;2023-06-22T13:46:44;7.20;;;3.38;;
81191;SDS011;70665;47.652;-2.730;2023-06-22T13:49:09;4.65;;;3.22;;
81191;SDS011;70665;47.652;-2.730;2023-06-22T13:51:35;7.22;;;3.33;;
81191;SDS011;70665;47.652;-2.730;2023-06-22T13:54:01;5.13;;;3.38;;
81191;SDS011;70665;47.652;-2.730;2023-06-22T13:56:27;7.03;;;3.30;;
81191;SDS011;70665;47.652;-2.730;2023-06-22T13:58:52;5.97;;;3.33;;
81191;SDS011;70665;47.652;-2.730;2023-06-22T14:01:18;5.20;;;3.40;;
81191;SDS011;70665;47.652;-2.730;2023-06-22T14:03:43;9.07;;;3.50;;
81191;SDS011;70665;47.652;-2.730;2023-06-22T14:06:11;5.75;;;3.30;;
81191;SDS011;70665;47.652;-2.730;2023-06-22T14:08:37;6.50;;;3.20;;
81191;SDS011;70665;47.652;-2.730;2023-06-22T14:11:03;8.10;;;3.50;;
81191;SDS011;70665;47.652;-2.730;2023-06-22T14:13:29;6.75;;;3.58;;
81191;SDS011;70665;47.652;-2.730;2023-06-22T14:15:54;6.55;;;3.42;;
81191;SDS011;70665;47.652;-2.730;2023-06-22T14:18:20;5.55;;;3.60;;
81191;SDS011;70665;47.652;-2.730;2023-06-22T14:20:47;6.20;;;3.20;;
81191;SDS011;70665;47.652;-2.730;2023-06-22T14:23:13;6.13;;;3.25;;
81191;SDS011;70665;47.652;-2.730;2023-06-22T14:25:39;5.88;;;3.40;;
81191;SDS011;70665;47.652;-2.730;2023-06-22T14:28:05;6.28;;;3.38;;
81191;SDS011;70665;47.652;-2.730;2023-06-22T14:30:31;7.70;;;3.72;;
81191;SDS011;70665;47.652;-2.730;2023-06-22T14:32:56;8.32;;;3.45;;
81191;SDS011;70665;47.652;-2.730;2023-06-22T14:35:22;8.55;;;3.35;;
81191;SDS011;70665;47.652;-2.730;2023-06-22T14:37:49;8.48;;;3.47;;
81191;SDS011;70665;47.652;-2.730;2023-06-22T14:40:15;5.35;;;3.20;;
81191;SDS011;70665;47.652;-2.730;2023-06-22T14:42:40;6.38;;;3.10;;
81191;SDS011;70665;47.652;-2.730;2023-06-22T14:45:06;6.05;;;3.28;;
81191;SDS011;70665;47.652;-2.730;2023-06-22T14:47:32;5.07;;;3.20;;
81191;SDS011;70665;47.652;-2.730;2023-06-22T14:49:58;7.60;;;3.30;;
81191;SDS011;70665;47.652;-2.730;2023-06-22T14:52:25;5.97;;;3.13;;
81191;SDS011;70665;47.652;-2.730;2023-06-22T14:54:51;9.93;;;3.55;;
81191;SDS011;70665;47.652;-2.730;2023-06-22T14:57:17;7.40;;;3.15;;
81191;SDS011;70665;47.652;-2.730;2023-06-22T14:59:45;4.15;;;2.90;;
81191;SDS011;70665;47.652;-2.730;2023-06-22T15:02:11;6.68;;;3.40;;
81191;SDS011;70665;47.652;-2.730;2023-06-22T15:04:37;4.28;;;3.30;;
81191;SDS011;70665;47.652;-2.730;2023-06-22T15:07:03;5.03;;;3.20;;
81191;SDS011;70665;47.652;-2.730;2023-06-22T15:09:29;4.97;;;2.67;;
81191;SDS011;70665;47.652;-2.730;2023-06-22T15:11:54;4.53;;;2.97;;
81191;SDS011;70665;47.652;-2.730;2023-06-22T15:14:20;5.68;;;2.92;;
81191;SDS011;70665;47.652;-2.730;2023-06-22T15:16:46;4.70;;;3.00;;
81191;SDS011;70665;47.652;-2.730;2023-06-22T15:19:11;4.90;;;3.53;;
81191;SDS011;70665;47.652;-2.730;2023-06-22T15:21:38;6.30;;;2.95;;
81191;SDS011;70665;47.652;-2.730;2023-06-22T15:24:03;5.13;;;2.78;;
81191;SDS011;70665;47.652;-2.730;2023-06-22T15:26:29;4.03;;;2.55;;
81191;SDS011;70665;47.652;-2.730;2023-06-22T15:28:55;4.57;;;2.80;;
81191;SDS011;70665;47.652;-2.730;2023-06-22T15:31:21;8.02;;;3.10;;
81191;SDS011;70665;47.652;-2.730;2023-06-22T15:33:46;6.78;;;3.20;;
81191;SDS011;70665;47.652;-2.730;2023-06-22T15:36:12;4.00;;;2.70;;
81191;SDS011;70665;47.652;-2.730;2023-06-22T15:38:38;6.07;;;3.25;;
81191;SDS011;70665;47.652;-2.730;2023-06-22T15:41:03;4.50;;;2.60;;
81191;SDS011;70665;47.652;-2.730;2023-06-22T15:43:29;4.93;;;3.03;;
81191;SDS011;70665;47.652;-2.730;2023-06-22T15:45:55;7.32;;;3.10;;
81191;SDS011;70665;47.652;-2.730;2023-06-22T15:48:21;3.85;;;2.83;;
81191;SDS011;70665;47.652;-2.730;2023-06-22T15:50:47;3.72;;;2.72;;
81191;SDS011;70665;47.652;-2.730;2023-06-22T15:53:12;4.28;;;2.92;;
81191;SDS011;70665;47.652;-2.730;2023-06-22T15:55:38;5.07;;;2.78;;
81191;SDS011;70665;47.652;-2.730;2023-06-22T15:58:04;6.30;;;3.20;;
81191;SDS011;70665;47.652;-2.730;2023-06-22T16:00:30;5.28;;;2.67;;